Time;durP1;ratioP1;P1;durP2;ratioP2;P2;SDS_P1;SDS_P2;PMS_P1;PMS_P2;Temp;Humidity;BMP_temperature;BMP_pressure;BME280_temperature;BME280_humidity;BME280_pressure;Samples;Min_cycle;Max_cycle;Signal;HPM_P1;HPM_P2
2023/08/20 00:00:04;;;;;;;2.67;2.47;;;;;;;19.33;65.46;93824.47;514093;28;1222;-46
2023/08/20 00:00:20;;;;;;;2.60;2.40;;;;;;;19.31;65.55;93827.13;514155;28;859;-46
2023/08/20 00:00:36;;;;;;;2.83;2.40;;;;;;;19.34;65.49;93831.56;514149;28;1076;-46
2023/08/20 00:00:52;;;;;;;2.58;2.38;;;;;;;19.34;65.41;93825.97;513665;28;1759;-47
2023/08/20 00:01:09;;;;;;;2.35;2.15;;;;;;;19.35;65.73;93823.91;512985;28;1470;-45
2023/08/20 00:01:26;;;;;;;2.63;2.42;;;;;;;19.34;65.80;93822.41;512687;28;975;-45
2023/08/20 00:01:42;;;;;;;2.60;2.40;;;;;;;19.34;65.60;93825.22;513853;28;1162;-46
2023/08/20 00:01:58;;;;;;;2.53;2.33;;;;;;;19.34;65.78;93823.16;513925;28;839;-45
2023/08/20 00:02:15;;;;;;;2.63;2.42;;;;;;;19.25;65.67;93821.09;513912;28;918;-46
2023/08/20 00:02:32;;;;;;;2.85;2.35;;;;;;;19.24;65.67;93814.06;514015;28;866;-45
2023/08/20 00:02:51;;;;;;;2.95;2.55;;;;;;;19.33;65.52;93823.72;512074;28;860;-45
2023/08/20 00:03:13;;;;;;;2.88;2.65;;;;;;;19.31;65.56;93824.34;509748;29;1140;-47
2023/08/20 00:03:29;;;;;;;3.45;2.35;;;;;;;19.32;65.74;93827.84;510067;29;827;-46
2023/08/20 00:03:46;;;;;;;3.17;2.20;;;;;;;19.31;65.60;93829.94;510510;29;1713;-45
2023/08/20 00:04:02;;;;;;;2.50;2.30;;;;;;;19.32;65.68;93823.00;512034;29;1030;-45
2023/08/20 00:04:17;;;;;;;2.75;2.47;;;;;;;19.20;65.53;93802.59;511948;28;938;-45
2023/08/20 00:04:35;;;;;;;3.00;2.73;;;;;;;19.32;65.44;93825.06;509960;29;1192;-44
2023/08/20 00:04:51;;;;;;;2.80;2.50;;;;;;;19.32;65.32;93825.06;510914;28;892;-46
2023/08/20 00:05:07;;;;;;;2.67;2.47;;;;;;;19.30;65.40;93820.06;509940;29;878;-46
2023/08/20 00:05:23;;;;;;;3.00;2.70;;;;;;;19.30;65.33;93822.84;511963;29;951;-45
2023/08/20 00:05:39;;;;;;;2.67;2.47;;;;;;;19.30;65.38;93824.91;511823;28;1128;-45
2023/08/20 00:05:55;;;;;;;3.53;2.60;;;;;;;19.29;65.42;93817.88;512073;29;829;-46
2023/08/20 00:06:11;;;;;;;3.75;2.80;;;;;;;19.29;65.34;93818.59;511531;28;1361;-46
2023/08/20 00:06:26;;;;;;;2.87;2.67;;;;;;;19.28;65.42;93816.38;512254;28;1799;-45
2023/08/20 00:06:44;;;;;;;2.67;2.47;;;;;;;19.28;65.38;93814.31;514047;28;939;-46
2023/08/20 00:06:59;;;;;;;2.30;2.10;;;;;;;19.27;65.57;93821.28;514035;28;866;-45
2023/08/20 00:07:18;;;;;;;2.28;2.08;;;;;;;19.26;65.49;93817.00;515086;28;1163;-45
2023/08/20 00:07:33;;;;;;;2.78;2.45;;;;;;;19.24;65.56;93816.13;515533;28;1291;-45
2023/08/20 00:07:49;;;;;;;3.50;2.63;;;;;;;19.25;65.52;93814.78;515981;28;877;-46
2023/08/20 00:08:04;;;;;;;3.40;2.43;;;;;;;19.20;65.68;93807.44;516025;28;809;-46
2023/08/20 00:08:20;;;;;;;2.72;2.28;;;;;;;19.22;65.65;93810.38;515086;28;821;-45
2023/08/20 00:08:36;;;;;;;2.83;2.40;;;;;;;19.22;65.67;93813.19;514174;28;881;-45
2023/08/20 00:08:51;;;;;;;2.88;2.65;;;;;;;19.21;65.64;93812.44;514129;28;1155;-46
2023/08/20 00:09:08;;;;;;;2.90;2.70;;;;;;;19.21;65.49;93815.25;513350;28;1746;-46
2023/08/20 00:09:26;;;;;;;3.88;2.60;;;;;;;19.20;65.66;93821.44;513442;28;856;-47
2023/08/20 00:09:41;;;;;;;4.00;2.22;;;;;;;19.15;65.70;93817.63;512540;28;845;-46
2023/08/20 00:09:57;;;;;;;2.55;2.20;;;;;;;19.17;65.78;93817.78;512148;28;877;-44
2023/08/20 00:10:12;;;;;;;2.50;2.17;;;;;;;19.15;65.75;93817.63;513365;28;1040;-47
2023/08/20 00:10:28;;;;;;;2.43;2.23;;;;;;;19.16;65.81;93816.31;514178;28;829;-46
2023/08/20 00:10:43;;;;;;;2.88;2.63;;;;;;;19.17;65.83;93825.44;514200;28;825;-47
2023/08/20 00:10:59;;;;;;;2.67;2.47;;;;;;;19.15;65.78;93812.03;514214;28;896;-45
2023/08/20 00:11:14;;;;;;;2.40;2.20;;;;;;;19.16;65.97;93816.31;513985;28;773;-45
2023/08/20 00:11:30;;;;;;;2.80;2.37;;;;;;;19.16;66.03;93816.31;514162;28;943;-46
2023/08/20 00:11:46;;;;;;;2.95;2.40;;;;;;;19.15;66.20;93814.84;514070;28;1158;-47
2023/08/20 00:12:03;;;;;;;2.70;2.33;;;;;;;19.15;66.49;93820.44;514226;28;766;-46
2023/08/20 00:12:18;;;;;;;2.78;2.47;;;;;;;19.16;66.61;93821.16;514134;28;811;-46
2023/08/20 00:12:33;;;;;;;2.97;2.73;;;;;;;19.10;66.74;93809.56;514136;28;900;-46
2023/08/20 00:12:49;;;;;;;3.17;2.87;;;;;;;19.13;66.67;93811.91;513897;28;1735;-46
2023/08/20 00:13:04;;;;;;;3.42;2.83;;;;;;;19.13;66.57;93814.69;513407;28;848;-46
2023/08/20 00:13:20;;;;;;;2.93;2.63;;;;;;;19.12;66.16;93816.03;513901;28;1103;-46
2023/08/20 00:13:35;;;;;;;2.57;2.37;;;;;;;19.14;66.33;93812.63;514240;28;856;-46
2023/08/20 00:13:51;;;;;;;2.40;2.20;;;;;;;19.13;66.35;93820.28;514100;28;1159;-46
2023/08/20 00:14:06;;;;;;;2.40;2.20;;;;;;;19.12;66.19;93807.66;514105;28;785;-46
2023/08/20 00:14:55;;;;;;;2.63;2.42;;;;;;;19.12;66.48;93815.31;514082;28;888;-48
2023/08/20 00:15:10;;;;;;;2.75;2.55;;;;;;;19.12;66.46;93813.25;513977;28;1722;-46
2023/08/20 00:15:29;;;;;;;2.78;2.58;;;;;;;19.11;66.22;93808.97;514096;28;861;-47
2023/08/20 00:15:45;;;;;;;2.63;2.42;;;;;;;19.11;66.13;93808.97;514207;28;869;-47
2023/08/20 00:16:00;;;;;;;2.72;2.42;;;;;;;19.10;66.18;93810.28;514182;28;856;-46
2023/08/20 00:16:16;;;;;;;3.03;2.40;;;;;;;19.10;66.08;93812.38;514042;28;1103;-46
2023/08/20 00:16:32;;;;;;;2.73;2.37;;;;;;;19.09;66.09;93810.88;512886;28;1817;-45
2023/08/20 00:16:48;;;;;;;2.65;2.45;;;;;;;19.12;66.08;93815.31;514001;28;816;-45
2023/08/20 00:17:04;;;;;;;2.50;2.30;;;;;;;19.11;66.06;93814.56;512185;28;936;-45
2023/08/20 00:17:20;;;;;;;2.70;2.50;;;;;;;19.11;66.14;93808.22;513977;28;829;-46
2023/08/20 00:17:37;;;;;;;2.90;2.60;;;;;;;19.12;66.07;93810.44;514035;28;773;-46
2023/08/20 00:17:54;;;;;;;2.80;2.60;;;;;;;19.12;66.03;93816.03;514014;28;1914;-46
2023/08/20 00:18:10;;;;;;;2.60;2.40;;;;;;;19.12;65.95;93813.25;514085;28;885;-46
2023/08/20 00:18:26;;;;;;;2.60;2.40;;;;;;;19.13;65.91;93817.50;514150;28;876;-45
2023/08/20 00:18:42;;;;;;;2.50;2.30;;;;;;;19.13;65.81;93819.56;512052;28;867;-46
2023/08/20 00:18:58;;;;;;;2.40;2.20;;;;;;;19.11;65.67;93817.34;511968;29;952;-46
2023/08/20 00:19:13;;;;;;;2.53;2.33;;;;;;;19.11;65.50;93814.56;512850;28;1727;-46
2023/08/20 00:19:29;;;;;;;3.13;2.40;;;;;;;19.11;65.50;93811.03;512048;28;806;-47
2023/08/20 00:19:45;;;;;;;3.10;2.50;;;;;;;19.10;65.42;93818.69;511869;28;1025;-46
2023/08/20 00:20:03;;;;;;;2.72;2.53;;;;;;;19.11;65.52;93820.16;511978;28;882;-47
2023/08/20 00:20:19;;;;;;;2.75;2.38;;;;;;;19.10;65.49;93818.69;513748;28;834;-48
2023/08/20 00:20:35;;;;;;;2.65;2.17;;;;;;;19.10;65.34;93812.38;514093;28;947;-46
2023/08/20 00:20:51;;;;;;;2.50;2.20;;;;;;;19.10;65.24;93823.56;514017;28;1160;-47
2023/08/20 00:21:07;;;;;;;2.57;2.23;;;;;;;19.10;65.29;93812.38;513861;28;837;-49
2023/08/20 00:21:23;;;;;;;2.40;2.20;;;;;;;19.09;65.30;93817.22;515918;28;833;-47
2023/08/20 00:21:42;;;;;;;2.50;2.23;;;;;;;19.09;65.04;93822.09;513985;28;1093;-48
2023/08/20 00:21:58;;;;;;;2.88;2.30;;;;;;;19.07;65.02;93814.28;513857;28;1622;-46
2023/08/20 00:22:14;;;;;;;2.50;2.20;;;;;;;19.07;65.05;93813.53;512134;28;1653;-47
2023/08/20 00:22:30;;;;;;;2.75;2.30;;;;;;;19.06;65.11;93817.69;509006;29;904;-46
2023/08/20 00:22:46;;;;;;;2.78;2.35;;;;;;;19.05;65.29;93821.81;507943;29;853;-47
2023/08/20 00:23:02;;;;;;;2.50;2.30;;;;;;;19.02;65.28;93818.13;509247;29;871;-46
2023/08/20 00:23:18;;;;;;;2.40;2.20;;;;;;;19.03;65.36;93816.81;510791;28;857;-47
2023/08/20 00:23:35;;;;;;;2.35;2.15;;;;;;;19.03;65.42;93816.81;511111;28;904;-46
2023/08/20 00:23:51;;;;;;;2.45;2.25;;;;;;;19.04;65.55;93818.28;513441;28;1048;-46
2023/08/20 00:24:07;;;;;;;3.45;2.63;;;;;;;19.05;65.41;93810.63;513930;28;819;-46
2023/08/20 00:24:23;;;;;;;3.33;2.58;;;;;;;19.04;65.40;93814.72;512858;28;1111;-47
2023/08/20 00:24:39;;;;;;;2.70;2.50;;;;;;;19.03;65.49;93810.47;514125;28;931;-46
2023/08/20 00:24:55;;;;;;;2.85;2.40;;;;;;;19.04;65.44;93812.66;514181;28;869;-46
2023/08/20 00:25:12;;;;;;;2.95;2.38;;;;;;;19.03;65.51;93816.81;513931;28;954;-47
2023/08/20 00:25:27;;;;;;;2.78;2.58;;;;;;;19.03;65.46;93816.06;514144;28;895;-46
2023/08/20 00:25:44;;;;;;;2.93;2.73;;;;;;;19.02;65.54;93812.53;514046;28;1050;-45
2023/08/20 00:25:59;;;;;;;2.58;2.38;;;;;;;19.02;65.58;93814.59;514178;28;835;-46
2023/08/20 00:26:15;;;;;;;2.67;2.30;;;;;;;19.02;65.43;93820.19;514029;28;861;-45
2023/08/20 00:26:31;;;;;;;2.80;2.60;;;;;;;19.02;65.64;93815.34;512898;28;1759;-45
2023/08/20 00:26:46;;;;;;;2.72;2.53;;;;;;;19.00;65.66;93823.59;513415;28;1212;-46
2023/08/20 00:27:02;;;;;;;2.77;2.50;;;;;;;19.00;65.60;93818.00;514144;28;824;-46
2023/08/20 00:27:17;;;;;;;2.90;2.58;;;;;;;18.99;65.70;93816.53;513952;28;880;-45
2023/08/20 00:27:33;;;;;;;2.83;2.53;;;;;;;18.99;65.74;93822.13;514025;28;1277;-46
2023/08/20 00:27:48;;;;;;;3.00;2.70;;;;;;;18.99;65.71;93818.59;514070;28;765;-46
2023/08/20 00:28:04;;;;;;;2.70;2.50;;;;;;;18.98;65.73;93823.47;514076;28;947;-45
2023/08/20 00:28:20;;;;;;;2.67;2.47;;;;;;;18.98;65.77;93823.47;514022;28;1004;-45
2023/08/20 00:28:38;;;;;;;3.20;2.90;;;;;;;18.98;65.93;93817.84;512983;28;1143;-48
2023/08/20 00:28:53;;;;;;;2.85;2.63;;;;;;;18.98;65.87;93820.66;512179;28;1142;-45
2023/08/20 00:29:09;;;;;;;2.80;2.47;;;;;;;18.99;65.98;93827.00;511971;28;1584;-45
2023/08/20 00:29:24;;;;;;;3.07;2.47;;;;;;;18.98;65.82;93822.72;512865;28;903;-45
2023/08/20 00:29:39;;;;;;;2.50;2.30;;;;;;;18.98;65.98;93820.66;513843;28;864;-46
2023/08/20 00:29:55;;;;;;;2.53;2.33;;;;;;;18.99;65.98;93819.34;514009;28;1278;-45
2023/08/20 00:30:10;;;;;;;2.30;2.10;;;;;;;19.00;65.81;93825.66;514035;28;872;-48
2023/08/20 00:30:26;;;;;;;2.92;2.53;;;;;;;18.99;65.92;93824.94;514139;28;818;-46
2023/08/20 00:30:41;;;;;;;3.13;2.70;;;;;;;18.99;65.90;93819.34;514155;28;893;-46
2023/08/20 00:30:57;;;;;;;2.63;2.42;;;;;;;18.98;65.87;93817.84;514123;28;758;-47
2023/08/20 00:31:12;;;;;;;3.07;2.80;;;;;;;18.99;65.83;93818.59;513889;28;1111;-46
2023/08/20 00:31:28;;;;;;;2.87;2.67;;;;;;;18.99;65.81;93818.59;514140;28;895;-46
2023/08/20 00:31:43;;;;;;;2.80;2.60;;;;;;;18.99;65.80;93818.59;514050;28;837;-48
2023/08/20 00:31:58;;;;;;;2.97;2.73;;;;;;;18.96;65.89;93814.91;514138;28;811;-46
2023/08/20 00:32:14;;;;;;;3.38;2.70;;;;;;;18.91;66.06;93811.09;514113;28;786;-46
2023/08/20 00:32:30;;;;;;;3.37;2.63;;;;;;;18.97;66.04;93818.47;514151;28;861;-46
2023/08/20 00:32:45;;;;;;;3.20;2.75;;;;;;;18.96;66.22;93814.91;513898;28;1194;-47
2023/08/20 00:33:00;;;;;;;2.90;2.60;;;;;;;18.97;66.26;93818.47;514156;28;832;-46
2023/08/20 00:33:17;;;;;;;2.53;2.33;;;;;;;18.96;66.10;93820.53;513103;28;1580;-47
2023/08/20 00:33:32;;;;;;;2.60;2.40;;;;;;;18.96;66.24;93828.91;513519;28;801;-46
2023/08/20 00:33:47;;;;;;;3.47;2.90;;;;;;;18.95;66.28;93821.13;512750;28;824;-47
2023/08/20 00:34:03;;;;;;;3.43;3.00;;;;;;;18.95;66.07;93829.50;512140;28;774;-47
2023/08/20 00:34:18;;;;;;;3.13;2.78;;;;;;;18.95;66.07;93824.63;513590;28;1226;-47
2023/08/20 00:34:34;;;;;;;3.23;2.60;;;;;;;18.95;66.02;93821.13;514016;28;1306;-46
2023/08/20 00:34:49;;;;;;;2.63;2.40;;;;;;;18.95;66.06;93829.50;514048;28;857;-47
2023/08/20 00:35:07;;;;;;;2.63;2.43;;;;;;;18.93;66.15;93825.25;514016;28;795;-46
2023/08/20 00:35:23;;;;;;;3.58;2.63;;;;;;;18.93;66.13;93825.25;514105;28;891;-46
2023/08/20 00:35:38;;;;;;;3.37;2.60;;;;;;;18.93;66.08;93821.69;514042;28;904;-47
2023/08/20 00:35:54;;;;;;;2.72;2.47;;;;;;;18.93;66.07;93824.50;514034;28;1135;-46
2023/08/20 00:36:09;;;;;;;3.33;2.47;;;;;;;18.92;66.11;93818.19;514112;28;773;-47
2023/08/20 00:36:24;;;;;;;3.22;2.35;;;;;;;18.92;66.12;93825.84;513463;28;1699;-46
2023/08/20 00:36:40;;;;;;;3.00;2.30;;;;;;;18.93;66.01;93824.50;512440;28;1664;-46
2023/08/20 00:36:55;;;;;;;2.90;2.47;;;;;;;18.92;65.90;93823.03;512579;28;786;-46
2023/08/20 00:37:12;;;;;;;3.22;2.70;;;;;;;18.93;66.03;93821.69;513947;28;1036;-47
2023/08/20 00:37:27;;;;;;;3.47;2.65;;;;;;;18.93;65.87;93825.25;513612;28;942;-46
2023/08/20 00:37:44;;;;;;;3.10;2.67;;;;;;;18.93;65.93;93816.84;512096;28;837;-46
2023/08/20 00:37:59;;;;;;;2.80;2.58;;;;;;;18.93;65.83;93825.25;511759;28;1208;-46
2023/08/20 00:38:15;;;;;;;2.60;2.40;;;;;;;18.92;65.93;93820.97;513594;28;894;-46
2023/08/20 00:38:30;;;;;;;2.93;2.63;;;;;;;18.94;65.66;93828.78;513591;28;955;-45
2023/08/20 00:38:45;;;;;;;3.05;2.72;;;;;;;18.93;65.64;93821.69;512523;28;1312;-46
2023/08/20 00:39:01;;;;;;;2.63;2.42;;;;;;;18.92;65.56;93825.84;513953;28;896;-46
2023/08/20 00:39:17;;;;;;;2.63;2.40;;;;;;;18.91;65.53;93818.75;513207;28;1654;-46
2023/08/20 00:39:32;;;;;;;2.85;2.33;;;;;;;18.91;65.49;93824.34;513084;28;942;-47
2023/08/20 00:39:48;;;;;;;2.60;2.37;;;;;;;18.91;65.62;93818.75;512765;28;951;-45
2023/08/20 00:40:05;;;;;;;2.70;2.50;;;;;;;18.90;65.57;93828.50;512108;28;1331;-46
2023/08/20 00:40:20;;;;;;;2.65;2.45;;;;;;;18.90;65.64;93820.09;513942;28;917;-45
2023/08/20 00:40:36;;;;;;;3.70;2.63;;;;;;;18.90;65.33;93828.50;514145;28;875;-46
2023/08/20 00:40:51;;;;;;;3.60;2.38;;;;;;;18.89;65.52;93824.22;514181;28;831;-47
2023/08/20 00:41:06;;;;;;;2.40;2.00;;;;;;;18.88;65.51;93817.16;514074;28;852;-46
2023/08/20 00:41:22;;;;;;;2.23;2.03;;;;;;;18.87;65.44;93818.50;514068;28;853;-45
2023/08/20 00:41:37;;;;;;;2.30;2.13;;;;;;;18.85;65.51;93821.88;514037;28;928;-46
2023/08/20 00:41:53;;;;;;;2.83;2.30;;;;;;;18.85;65.51;93821.16;514070;28;1084;-48
2023/08/20 00:42:08;;;;;;;3.13;2.40;;;;;;;18.84;65.40;93817.59;514100;28;856;-46
2023/08/20 00:42:27;;;;;;;2.50;2.30;;;;;;;18.78;65.57;93808.06;514204;28;824;-45
2023/08/20 00:42:42;;;;;;;2.47;2.28;;;;;;;18.84;65.54;93816.91;514151;28;899;-47
2023/08/20 00:42:58;;;;;;;2.70;2.50;;;;;;;18.82;65.61;93814.66;512815;28;1722;-46
2023/08/20 00:43:13;;;;;;;2.88;2.67;;;;;;;18.82;65.39;93817.47;513448;28;997;-47
2023/08/20 00:43:29;;;;;;;2.87;2.50;;;;;;;18.81;65.38;93818.81;514121;28;991;-46
2023/08/20 00:43:44;;;;;;;3.43;2.50;;;;;;;18.80;65.50;93819.38;514084;28;932;-46
2023/08/20 00:43:59;;;;;;;2.90;2.50;;;;;;;18.81;65.64;93818.06;512742;28;868;-46
2023/08/20 00:44:15;;;;;;;2.70;2.50;;;;;;;18.82;65.53;93816.72;513419;28;791;-46
2023/08/20 00:44:31;;;;;;;2.70;2.50;;;;;;;18.79;65.49;93813.09;514091;28;880;-48
2023/08/20 00:44:46;;;;;;;2.95;2.42;;;;;;;18.81;65.40;93823.66;513934;28;1146;-46
2023/08/20 00:45:03;;;;;;;3.10;2.40;;;;;;;18.79;65.39;93815.88;514035;28;915;-47
2023/08/20 00:45:18;;;;;;;2.83;2.40;;;;;;;18.80;65.16;93822.94;514095;28;870;-46
2023/08/20 00:45:34;;;;;;;2.65;2.42;;;;;;;18.80;65.37;93816.59;514051;28;877;-47
2023/08/20 00:45:49;;;;;;;3.00;2.53;;;;;;;18.79;65.35;93817.94;514081;28;911;-46
2023/08/20 00:46:05;;;;;;;3.33;2.50;;;;;;;18.80;65.32;93816.59;514089;28;845;-45
2023/08/20 00:46:20;;;;;;;3.13;2.50;;;;;;;18.76;65.27;93808.66;513664;28;1111;-44
2023/08/20 00:46:36;;;;;;;2.63;2.43;;;;;;;18.80;65.47;93819.38;512737;28;1707;-46
2023/08/20 00:46:51;;;;;;;2.63;2.42;;;;;;;18.79;65.60;93818.69;513960;28;865;-46
2023/08/20 00:47:07;;;;;;;2.67;2.43;;;;;;;18.77;65.55;93815.75;512432;28;843;-46
2023/08/20 00:47:23;;;;;;;2.58;2.38;;;;;;;18.77;65.64;93812.94;512105;28;838;-46
2023/08/20 00:47:38;;;;;;;2.37;2.17;;;;;;;18.76;65.62;93814.25;512006;28;971;-46
2023/08/20 00:47:54;;;;;;;2.37;2.17;;;;;;;18.75;65.87;93815.56;513685;28;1081;-45
2023/08/20 00:48:10;;;;;;;2.60;2.40;;;;;;;18.76;65.93;93813.53;514056;28;1537;-47
2023/08/20 00:48:26;;;;;;;2.60;2.40;;;;;;;18.75;66.05;93815.56;515908;28;898;-46
2023/08/20 00:48:41;;;;;;;3.10;2.50;;;;;;;18.73;65.93;93812.63;514246;28;914;-46
2023/08/20 00:48:56;;;;;;;2.90;2.50;;;;;;;18.73;66.08;93815.44;513961;28;761;-46
2023/08/20 00:49:12;;;;;;;2.67;2.47;;;;;;;18.72;66.05;93808.38;513379;28;1595;-46
2023/08/20 00:49:28;;;;;;;2.78;2.58;;;;;;;18.72;66.08;93811.19;510839;29;800;-46
2023/08/20 00:49:43;;;;;;;2.72;2.53;;;;;;;18.75;65.96;93817.66;508303;29;1033;-45
2023/08/20 00:49:59;;;;;;;2.70;2.50;;;;;;;18.74;65.82;93810.59;510466;29;848;-45
2023/08/20 00:50:14;;;;;;;2.93;2.50;;;;;;;18.72;65.79;93813.97;511880;29;860;-48
2023/08/20 00:50:29;;;;;;;3.28;2.65;;;;;;;18.72;65.86;93804.84;511918;29;891;-46
2023/08/20 00:50:45;;;;;;;3.20;2.77;;;;;;;18.74;65.76;93816.19;511832;29;1286;-46
2023/08/20 00:51:01;;;;;;;2.75;2.50;;;;;;;18.73;65.74;93812.63;511938;29;858;-47
2023/08/20 00:51:17;;;;;;;2.97;2.67;;;;;;;18.72;65.80;93808.38;512206;28;864;-45
2023/08/20 00:51:33;;;;;;;3.00;2.67;;;;;;;18.71;65.90;93806.19;511943;29;793;-48
2023/08/20 00:51:49;;;;;;;2.90;2.20;;;;;;;18.65;65.81;93786.16;513567;28;2508;-46
2023/08/20 00:52:05;;;;;;;2.75;2.22;;;;;;;18.72;65.91;93804.84;513878;28;986;-44
2023/08/20 00:52:20;;;;;;;2.73;2.53;;;;;;;18.72;65.94;93805.59;511469;29;1009;-45
2023/08/20 00:52:36;;;;;;;2.75;2.55;;;;;;;18.72;66.01;93807.66;511783;28;1621;-46
2023/08/20 00:52:51;;;;;;;2.50;2.30;;;;;;;18.72;66.09;93802.78;510419;29;852;-46
2023/08/20 00:53:08;;;;;;;2.67;2.47;;;;;;;18.73;65.96;93803.53;508109;29;872;-47
2023/08/20 00:53:23;;;;;;;2.95;2.60;;;;;;;18.72;66.09;93807.66;506028;29;872;-45
2023/08/20 00:53:39;;;;;;;3.47;2.70;;;;;;;18.71;65.97;93798.50;506503;29;900;-45
2023/08/20 00:53:55;;;;;;;3.60;2.80;;;;;;;18.72;65.92;93807.66;509831;29;1112;-45
2023/08/20 00:54:10;;;;;;;3.17;2.63;;;;;;;18.73;65.93;93803.53;510462;29;862;-46
2023/08/20 00:54:26;;;;;;;2.58;2.30;;;;;;;18.72;65.90;93807.66;511967;28;918;-45
2023/08/20 00:54:44;;;;;;;2.38;2.17;;;;;;;18.73;65.76;93803.53;511947;28;849;-46
2023/08/20 00:55:00;;;;;;;2.28;2.13;;;;;;;18.70;65.71;93799.13;510892;29;873;-46
2023/08/20 00:55:15;;;;;;;2.70;2.50;;;;;;;18.72;65.75;93802.78;511913;28;1060;-45
2023/08/20 00:55:31;;;;;;;2.90;2.65;;;;;;;18.74;65.70;93799.38;513644;28;1662;-46
2023/08/20 00:55:47;;;;;;;2.87;2.60;;;;;;;18.73;66.04;93807.03;511941;28;815;-46
2023/08/20 00:56:02;;;;;;;3.03;2.47;;;;;;;18.73;65.71;93804.25;512025;29;812;-48
2023/08/20 00:56:17;;;;;;;3.00;2.47;;;;;;;18.74;65.60;93799.38;509845;28;903;-46
2023/08/20 00:56:33;;;;;;;2.67;2.47;;;;;;;18.74;65.71;93802.19;509954;29;852;-45
2023/08/20 00:56:50;;;;;;;2.90;2.70;;;;;;;18.74;65.90;93800.13;509850;29;986;-45
2023/08/20 00:57:06;;;;;;;2.65;2.45;;;;;;;18.73;65.96;93806.31;510324;29;892;-45
2023/08/20 00:57:22;;;;;;;2.55;2.20;;;;;;;18.66;66.13;93790.44;511858;28;1081;-45
2023/08/20 00:57:38;;;;;;;2.90;2.50;;;;;;;18.71;66.16;93800.59;511549;29;876;-46
2023/08/20 00:57:54;;;;;;;2.92;2.60;;;;;;;18.71;66.21;93800.59;511693;29;1919;-46
2023/08/20 00:58:10;;;;;;;3.78;2.80;;;;;;;18.71;66.37;93800.59;512684;28;805;-46
2023/08/20 00:58:25;;;;;;;2.95;2.38;;;;;;;18.69;66.20;93798.38;511833;29;1200;-46
2023/08/20 00:58:41;;;;;;;2.53;2.33;;;;;;;18.71;66.23;93795.00;512008;28;815;-46
2023/08/20 00:58:57;;;;;;;2.80;2.50;;;;;;;18.69;66.25;93800.47;511899;28;868;-45
2023/08/20 00:59:12;;;;;;;2.50;2.30;;;;;;;18.70;66.21;93793.53;511424;28;1703;-45
2023/08/20 00:59:29;;;;;;;3.15;2.70;;;;;;;18.68;66.34;93788.53;511801;28;880;-45
2023/08/20 00:59:49;;;;;;;3.30;2.75;;;;;;;18.68;66.36;93796.91;511303;29;940;-47
2023/08/20 01:00:08;;;;;;;2.85;2.55;;;;;;;18.68;66.62;93790.59;511779;29;1749;-45
2023/08/20 01:00:24;;;;;;;2.90;2.70;;;;;;;18.68;66.56;93791.31;511000;29;893;-45
2023/08/20 01:00:39;;;;;;;2.70;2.50;;;;;;;18.68;66.69;93793.38;511576;28;1350;-47
2023/08/20 01:00:55;;;;;;;3.00;2.70;;;;;;;18.68;66.43;93790.59;511019;29;809;-46
2023/08/20 01:01:10;;;;;;;2.63;2.43;;;;;;;18.68;66.69;93794.13;512184;28;832;-45
2023/08/20 01:01:25;;;;;;;2.63;2.17;;;;;;;18.68;66.62;93790.59;513761;28;860;-46
2023/08/20 01:01:41;;;;;;;3.40;2.70;;;;;;;18.68;66.48;93791.31;513856;28;836;-45
2023/08/20 01:01:56;;;;;;;2.83;2.60;;;;;;;18.68;66.63;93793.38;513862;28;809;-46
2023/08/20 01:02:12;;;;;;;2.37;2.17;;;;;;;18.69;66.58;93792.06;513947;28;828;-44
2023/08/20 01:02:27;;;;;;;2.45;2.20;;;;;;;18.69;66.58;93789.28;513920;28;986;-46
2023/08/20 01:02:43;;;;;;;3.60;2.63;;;;;;;18.69;67.06;93792.78;513325;28;1746;-45
2023/08/20 01:02:58;;;;;;;3.15;2.70;;;;;;;18.69;66.72;93792.06;512918;28;927;-45
2023/08/20 01:03:14;;;;;;;2.73;2.53;;;;;;;18.69;66.67;93792.78;513818;28;838;-45
2023/08/20 01:03:29;;;;;;;2.80;2.60;;;;;;;18.69;66.54;93792.06;514109;28;805;-46
2023/08/20 01:03:45;;;;;;;2.77;2.57;;;;;;;18.70;66.60;93793.53;513953;28;1060;-46
2023/08/20 01:04:00;;;;;;;2.88;2.67;;;;;;;18.69;66.67;93787.19;514074;28;968;-45
2023/08/20 01:04:16;;;;;;;2.80;2.60;;;;;;;18.69;66.55;93792.78;514077;28;856;-46
2023/08/20 01:04:31;;;;;;;2.97;2.67;;;;;;;18.70;66.69;93796.31;514158;28;931;-46
2023/08/20 01:04:48;;;;;;;3.47;2.60;;;;;;;18.70;66.85;93788.66;513825;28;881;-46
2023/08/20 01:05:06;;;;;;;3.05;2.63;;;;;;;18.70;66.81;93791.47;513930;28;835;-44
2023/08/20 01:05:22;;;;;;;2.60;2.40;;;;;;;18.71;66.92;93795.00;513632;28;989;-46
2023/08/20 01:05:46;;;;;;;2.42;2.22;;;;;;;18.72;66.64;93802.06;513679;28;1155;-46
2023/08/20 01:06:28;;;;;;;2.50;2.30;;;;;;;18.72;66.50;93785.28;511917;29;861;-45
2023/08/20 01:06:49;;;;;;;3.70;2.90;;;;;;;18.71;66.56;93795.00;510567;29;1064;-46
2023/08/20 01:07:23;;;;;;;2.90;2.60;;;;;;;18.72;66.36;93790.88;511542;28;1692;-47
2023/08/20 01:08:16;;;;;;;2.40;2.20;;;;;;;18.73;66.25;93789.56;512103;28;876;-46
2023/08/20 01:08:39;;;;;;;2.45;2.20;;;;;;;18.73;65.71;93797.94;514017;28;884;-45
2023/08/20 01:09:22;;;;;;;2.45;2.25;;;;;;;18.72;65.74;93799.25;514100;28;1690;-46
2023/08/20 01:09:47;;;;;;;3.08;2.40;;;;;;;18.71;65.36;93789.41;513860;28;1364;-45
2023/08/20 01:10:08;;;;;;;2.88;2.50;;;;;;;18.71;65.20;93789.41;514106;28;1290;-45
2023/08/20 01:10:33;;;;;;;2.30;2.10;;;;;;;18.71;65.34;93795.72;512487;28;1774;-45
2023/08/20 01:11:17;;;;;;;2.10;1.90;;;;;;;18.70;65.34;93799.84;515624;28;853;-45
2023/08/20 01:11:41;;;;;;;2.40;2.20;;;;;;;18.71;65.27;93792.22;513845;28;884;-44
2023/08/20 01:12:00;;;;;;;2.40;2.15;;;;;;;18.69;65.18;93792.78;513899;28;834;-45
2023/08/20 01:12:16;;;;;;;2.38;2.17;;;;;;;18.69;65.17;93792.78;514815;28;833;-46
2023/08/20 01:12:34;;;;;;;2.20;2.00;;;;;;;18.68;65.28;93791.31;515885;28;915;-45
2023/08/20 01:12:50;;;;;;;2.58;2.38;;;;;;;18.66;65.08;93788.38;513803;28;1080;-45
2023/08/20 01:13:05;;;;;;;3.00;2.70;;;;;;;18.61;65.29;93783.09;513423;28;1735;-45
2023/08/20 01:13:21;;;;;;;2.78;2.58;;;;;;;18.64;65.02;93791.06;511903;29;815;-46
2023/08/20 01:13:36;;;;;;;2.65;2.45;;;;;;;18.65;65.06;93792.50;511753;29;841;-45
2023/08/20 01:13:54;;;;;;;2.43;2.23;;;;;;;18.65;65.05;93788.97;511850;28;1163;-44
2023/08/20 01:14:16;;;;;;;2.47;2.28;;;;;;;18.64;65.07;93795.91;511186;28;1639;-46
2023/08/20 01:14:32;;;;;;;2.38;2.17;;;;;;;18.64;64.79;93795.91;511859;28;810;-47
2023/08/20 01:14:47;;;;;;;2.30;2.10;;;;;;;18.62;64.89;93793.72;513447;28;1101;-46
2023/08/20 01:15:03;;;;;;;2.60;2.40;;;;;;;18.62;64.88;93785.31;513909;28;880;-45
2023/08/20 01:15:18;;;;;;;2.60;2.40;;;;;;;18.60;64.89;93782.34;513801;28;868;-45
2023/08/20 01:15:34;;;;;;;2.35;2.15;;;;;;;18.60;64.78;93790.03;514054;28;864;-45
2023/08/20 01:15:49;;;;;;;2.67;2.47;;;;;;;18.58;64.74;93787.09;513955;28;1216;-45
2023/08/20 01:16:05;;;;;;;4.20;2.40;;;;;;;18.57;64.77;93785.63;514016;28;889;-46
2023/08/20 01:16:20;;;;;;;3.70;1.97;;;;;;;18.56;64.83;93790.47;514017;28;972;-45
2023/08/20 01:16:36;;;;;;;2.30;2.10;;;;;;;18.55;64.89;93788.28;514107;28;796;-46
2023/08/20 01:16:51;;;;;;;3.07;2.60;;;;;;;18.53;64.97;93785.34;514103;28;825;-44
2023/08/20 01:17:06;;;;;;;3.10;2.67;;;;;;;18.52;64.91;93786.66;513033;28;1707;-45
2023/08/20 01:17:22;;;;;;;2.83;2.53;;;;;;;18.51;64.87;93788.72;513021;28;1627;-48
2023/08/20 01:17:37;;;;;;;2.77;2.47;;;;;;;18.46;65.04;93784.19;511959;28;849;-48
2023/08/20 01:17:53;;;;;;;2.55;2.33;;;;;;;18.49;64.96;93787.84;513313;28;1911;-46
2023/08/20 01:18:08;;;;;;;2.57;2.37;;;;;;;18.46;65.15;93781.38;513043;28;831;-46
2023/08/20 01:18:24;;;;;;;2.45;2.28;;;;;;;18.45;65.15;93782.69;513985;28;892;-45
2023/08/20 01:18:40;;;;;;;2.60;2.40;;;;;;;18.45;65.22;93787.56;513977;28;985;-46
2023/08/20 01:18:55;;;;;;;2.58;2.38;;;;;;;18.45;65.31;93793.16;514084;28;857;-46
2023/08/20 01:19:16;;;;;;;2.63;2.40;;;;;;;18.42;65.30;93789.47;513872;28;1283;-46
2023/08/20 01:19:32;;;;;;;3.80;2.43;;;;;;;18.40;65.18;93789.31;513740;28;939;-46
2023/08/20 01:19:47;;;;;;;4.60;2.63;;;;;;;18.38;65.26;93778.00;514000;28;824;-47
2023/08/20 01:20:04;;;;;;;2.97;2.67;;;;;;;18.40;65.25;93785.78;513827;28;871;-45
2023/08/20 01:20:21;;;;;;;2.57;2.33;;;;;;;18.36;65.21;93782.72;513280;28;2007;-46
2023/08/20 01:20:41;;;;;;;2.67;2.20;;;;;;;18.32;65.23;93785.94;512756;28;898;-45
2023/08/20 01:21:01;;;;;;;2.53;2.33;;;;;;;18.32;65.33;93788.03;510798;29;872;-47
2023/08/20 01:21:39;;;;;;;2.70;2.50;;;;;;;18.28;65.46;93796.13;509746;29;1004;-46